createdAt,value
2017-03-28T00:00:18.482Z,1022.064
2017-03-28T00:03:23.850Z,1022.058
2017-03-28T00:06:29.246Z,1022.028
2017-03-28T00:09:34.658Z,1021.982
2017-03-28T00:12:40.084Z,1021.915
2017-03-28T00:15:45.334Z,1021.947
2017-03-28T00:18:50.555Z,1021.958
2017-03-28T00:25:07.691Z,1021.929
2017-03-28T00:28:06.133Z,1021.863
2017-03-28T00:31:11.564Z,1021.865
2017-03-28T00:34:16.688Z,1021.880
2017-03-28T00:37:22.074Z,1021.859
2017-03-28T00:40:27.259Z,1021.859
2017-03-28T00:43:32.564Z,1021.872
2017-03-28T00:46:37.906Z,1021.824
2017-03-28T00:49:43.245Z,1021.772
2017-03-28T00:52:48.418Z,1021.752
2017-03-28T00:55:53.518Z,1021.727
2017-03-28T00:58:58.726Z,1021.734
2017-03-28T01:02:04.161Z,1021.746
2017-03-28T01:05:09.619Z,1021.715
2017-03-28T01:08:14.953Z,1021.657
2017-03-28T01:11:26.354Z,1021.668
2017-03-28T01:14:24.809Z,1021.702
2017-03-28T01:17:36.210Z,1021.674
2017-03-28T01:20:34.779Z,1021.647
2017-03-28T01:23:41.173Z,1021.617
2017-03-28T01:26:45.768Z,1021.541
2017-03-28T01:29:50.786Z,1021.520
2017-03-28T01:32:56.155Z,1021.496
2017-03-28T01:35:56.491Z,1021.446
2017-03-28T01:39:07.444Z,1021.409
2017-03-28T01:42:12.521Z,1021.364
2017-03-28T01:45:17.889Z,1021.349
2017-03-28T01:51:28.779Z,1021.370
2017-03-28T01:54:34.079Z,1021.330
2017-03-28T01:57:39.036Z,1021.295
2017-03-28T02:00:39.154Z,1021.303
2017-03-28T02:03:55.973Z,1021.348
2017-03-28T02:07:00.473Z,1021.393
2017-03-28T02:10:06.132Z,1021.398
2017-03-28T02:13:10.554Z,1021.395
2017-03-28T02:16:09.925Z,1021.368
2017-03-28T02:19:15.052Z,1021.376
2017-03-28T02:22:19.798Z,1021.328
2017-03-28T02:25:20.068Z,1021.332
2017-03-28T02:28:30.805Z,1021.346
2017-03-28T02:31:36.158Z,1021.312
2017-03-28T02:34:41.464Z,1021.281
2017-03-28T02:37:46.649Z,1021.244
2017-03-28T02:40:51.979Z,1021.238
2017-03-28T02:43:57.333Z,1021.182
2017-03-28T02:47:02.459Z,1021.151
2017-03-28T02:50:07.649Z,1021.161
2017-03-28T02:53:12.650Z,1021.139
2017-03-28T02:56:18.024Z,1021.129
2017-03-28T02:59:23.203Z,1021.135
2017-03-28T03:02:28.441Z,1021.150
2017-03-28T03:05:33.788Z,1021.160
2017-03-28T03:11:44.768Z,1021.282
2017-03-28T03:14:50.078Z,1021.275
2017-03-28T03:17:55.403Z,1021.260
2017-03-28T03:21:00.569Z,1021.209
2017-03-28T03:30:16.749Z,1021.168
2017-03-28T03:33:21.732Z,1021.148
2017-03-28T03:36:27.089Z,1021.145
2017-03-28T03:42:37.694Z,1021.142
2017-03-28T03:45:42.774Z,1021.126
2017-03-28T03:48:48.043Z,1021.125
2017-03-28T03:51:53.139Z,1021.139
2017-03-28T03:54:58.286Z,1021.143
2017-03-28T04:01:09.008Z,1021.090
2017-03-28T04:04:14.289Z,1021.116
2017-03-28T04:07:19.554Z,1021.081
2017-03-28T04:10:24.640Z,1021.024
2017-03-28T04:13:29.897Z,1020.975
2017-03-28T04:16:35.102Z,1020.973
2017-03-28T04:19:40.418Z,1020.997
2017-03-28T04:22:45.524Z,1020.992
2017-03-28T04:25:50.719Z,1020.984
2017-03-28T04:28:55.795Z,1020.956
2017-03-28T04:32:01.333Z,1020.958
2017-03-28T04:35:06.500Z,1021.013
2017-03-28T04:38:11.514Z,1021.002
2017-03-28T04:41:16.739Z,1020.969
2017-03-28T04:47:33.706Z,1020.998
2017-03-28T04:53:37.651Z,1021.054
2017-03-28T04:56:42.855Z,1021.024
2017-03-28T04:59:48.094Z,1021.041
2017-03-28T05:02:53.463Z,1021.046
2017-03-28T05:05:58.608Z,1021.028
2017-03-28T05:09:03.676Z,1021.058
2017-03-28T05:12:08.813Z,1021.067
2017-03-28T05:15:14.057Z,1021.091
2017-03-28T05:18:18.957Z,1021.074
2017-03-28T05:21:24.215Z,1021.029
2017-03-28T05:24:29.232Z,1021.018
2017-03-28T05:27:34.539Z,1021.012
2017-03-28T05:30:39.679Z,1020.983
2017-03-28T05:33:44.896Z,1021.034
2017-03-28T05:36:50.062Z,1021.009
2017-03-28T05:39:55.151Z,1020.981
2017-03-28T05:43:00.333Z,1020.952
2017-03-28T05:46:05.476Z,1020.984
2017-03-28T05:49:10.717Z,1020.961
2017-03-28T05:52:15.649Z,1020.980
2017-03-28T05:58:26.385Z,1020.932
2017-03-28T06:01:37.543Z,1020.958
2017-03-28T06:04:36.882Z,1020.986
2017-03-28T06:07:42.430Z,1021.013
2017-03-28T06:10:47.463Z,1021.044
2017-03-28T06:13:52.782Z,1021.031
2017-03-28T06:16:57.766Z,1021.003
2017-03-28T06:20:02.916Z,1020.946
2017-03-28T06:23:08.229Z,1020.930
2017-03-28T06:26:13.382Z,1020.888
2017-03-28T06:29:18.587Z,1020.923
2017-03-28T06:35:28.645Z,1020.871
2017-03-28T06:38:33.928Z,1020.877
2017-03-28T06:41:39.313Z,1020.888
2017-03-28T06:44:44.407Z,1020.908
2017-03-28T06:50:55.180Z,1020.943
2017-03-28T06:54:00.037Z,1020.978
2017-03-28T06:57:05.062Z,1020.962
2017-03-28T07:00:10.453Z,1020.952
2017-03-28T07:03:15.604Z,1020.947
2017-03-28T07:06:20.951Z,1020.937
2017-03-28T07:09:26.181Z,1020.901
2017-03-28T07:12:31.471Z,1020.907
2017-03-28T07:15:36.832Z,1020.922
2017-03-28T07:18:42.149Z,1020.859
2017-03-28T07:21:47.445Z,1020.866
2017-03-28T07:24:52.456Z,1020.829
2017-03-28T07:27:57.902Z,1020.794
2017-03-28T07:31:03.276Z,1020.760
2017-03-28T07:37:13.971Z,1020.709
2017-03-28T07:40:19.371Z,1020.705
2017-03-28T07:43:24.820Z,1020.704
2017-03-28T07:46:30.090Z,1020.682
2017-03-28T07:49:35.357Z,1020.669
2017-03-28T07:52:40.791Z,1020.661
2017-03-28T07:55:52.164Z,1020.713
2017-03-28T07:58:50.510Z,1020.714
2017-03-28T08:01:55.691Z,1020.698
2017-03-28T08:05:01.012Z,1020.689
2017-03-28T08:08:06.462Z,1020.681
2017-03-28T08:11:11.899Z,1020.686
2017-03-28T08:14:17.279Z,1020.700
2017-03-28T08:17:22.780Z,1020.685
2017-03-28T08:20:28.267Z,1020.747
2017-03-28T08:23:33.527Z,1020.699
2017-03-28T08:26:38.999Z,1020.705
2017-03-28T08:29:44.351Z,1020.722
2017-03-28T08:32:49.930Z,1020.771
2017-03-28T08:35:54.603Z,1020.769
2017-03-28T08:39:00.111Z,1020.711
2017-03-28T08:42:05.404Z,1020.678
2017-03-28T08:45:10.847Z,1020.657
2017-03-28T08:48:16.309Z,1020.650
2017-03-28T08:51:21.943Z,1020.641
2017-03-28T08:54:27.436Z,1020.670
2017-03-28T08:57:32.977Z,1020.618
2017-03-28T09:00:38.360Z,1020.609
2017-03-28T09:03:43.936Z,1020.595
2017-03-28T09:06:49.462Z,1020.537
2017-03-28T09:09:54.977Z,1020.523
2017-03-28T09:13:00.630Z,1020.521
2017-03-28T09:16:06.184Z,1020.491
2017-03-28T09:19:11.691Z,1020.502
2017-03-28T09:22:17.716Z,1020.435
2017-03-28T09:25:23.328Z,1020.455
2017-03-28T09:28:28.937Z,1020.439
2017-03-28T09:31:34.572Z,1020.410
2017-03-28T09:34:40.312Z,1020.396
2017-03-28T09:37:45.488Z,1020.372
2017-03-28T09:40:50.996Z,1020.341
2017-03-28T09:43:56.273Z,1020.337
2017-03-28T09:47:01.774Z,1020.312
2017-03-28T09:50:07.421Z,1020.285
2017-03-28T09:53:13.051Z,1020.248
2017-03-28T09:56:18.330Z,1020.188
2017-03-28T09:59:24.157Z,1020.196
2017-03-28T10:02:25.188Z,1020.072
2017-03-28T10:05:31.115Z,1020.027
2017-03-28T10:08:36.963Z,1019.958
2017-03-28T10:11:43.086Z,1019.907
2017-03-28T10:14:49.075Z,1019.850
2017-03-28T10:17:55.055Z,1019.784
2017-03-28T10:24:07.342Z,1019.733
2017-03-28T10:27:13.271Z,1019.690
2017-03-28T10:30:19.204Z,1019.702
2017-03-28T10:33:25.173Z,1019.661
2017-03-28T10:36:31.092Z,1019.577
2017-03-28T10:39:37.256Z,1019.533
2017-03-28T10:42:43.252Z,1019.506
2017-03-28T10:45:49.363Z,1019.445
2017-03-28T10:48:55.242Z,1019.429
2017-03-28T10:52:01.278Z,1019.360
2017-03-28T10:58:13.858Z,1019.123
2017-03-28T11:01:19.975Z,1019.126
2017-03-28T11:04:26.015Z,1019.095
2017-03-28T11:07:32.190Z,1018.980
2017-03-28T11:10:38.400Z,1018.939
2017-03-28T11:13:44.543Z,1018.902
2017-03-28T11:16:50.477Z,1018.861
2017-03-28T11:19:56.399Z,1018.851
2017-03-28T11:23:02.235Z,1018.782
2017-03-28T11:26:08.267Z,1018.715
2017-03-28T11:29:14.300Z,1018.745
2017-03-28T11:32:20.149Z,1018.714
2017-03-28T11:35:26.285Z,1018.686
2017-03-28T11:38:32.442Z,1018.641
2017-03-28T11:41:38.772Z,1018.633
2017-03-28T11:44:44.925Z,1018.623
2017-03-28T11:47:50.792Z,1018.617
2017-03-28T11:50:57.062Z,1018.523
2017-03-28T11:54:03.101Z,1018.458
2017-03-28T11:57:09.579Z,1018.416
2017-03-28T12:00:15.803Z,1018.350
2017-03-28T12:03:21.642Z,1018.259
2017-03-28T12:06:27.944Z,1018.224
2017-03-28T12:09:33.726Z,1018.184
2017-03-28T12:12:40.074Z,1018.151
2017-03-28T12:15:46.121Z,1018.146
2017-03-28T12:18:52.337Z,1018.050
2017-03-28T12:21:58.607Z,1018.011
2017-03-28T12:25:04.834Z,1017.971
2017-03-28T12:28:11.133Z,1018.008
2017-03-28T12:31:17.416Z,1017.927
2017-03-28T12:34:23.588Z,1017.881
2017-03-28T12:37:29.900Z,1017.845
2017-03-28T12:40:36.203Z,1017.808
2017-03-28T12:43:42.466Z,1017.792
2017-03-28T12:46:48.459Z,1017.762
2017-03-28T12:49:54.733Z,1017.744
2017-03-28T12:53:01.076Z,1017.711
2017-03-28T12:56:07.241Z,1017.737
2017-03-28T12:59:13.672Z,1017.710
2017-03-28T13:02:19.786Z,1017.753
2017-03-28T13:05:26.066Z,1017.725
2017-03-28T13:08:32.410Z,1017.698
2017-03-28T13:11:38.746Z,1017.652
2017-03-28T13:14:44.833Z,1017.609
2017-03-28T13:17:51.097Z,1017.501
2017-03-28T13:20:57.568Z,1017.477
2017-03-28T13:24:02.770Z,1017.495
2017-03-28T13:27:08.935Z,1017.435
2017-03-28T13:30:15.098Z,1017.382
2017-03-28T13:33:21.415Z,1017.363
2017-03-28T13:36:27.671Z,1017.326
2017-03-28T13:39:33.896Z,1017.285
2017-03-28T13:42:40.107Z,1017.191
2017-03-28T13:45:46.325Z,1017.158
2017-03-28T13:48:52.702Z,1017.141
2017-03-28T13:51:58.787Z,1017.122
2017-03-28T13:55:05.157Z,1017.047
2017-03-28T13:58:10.749Z,1017.024
2017-03-28T14:01:17.018Z,1016.990
2017-03-28T14:04:23.134Z,1016.973
2017-03-28T14:07:29.334Z,1016.940
2017-03-28T14:10:35.528Z,1016.953
2017-03-28T14:13:41.757Z,1016.922
2017-03-28T14:16:47.506Z,1016.859
2017-03-28T14:19:53.824Z,1016.863
2017-03-28T14:23:00.215Z,1016.803
2017-03-28T14:26:06.441Z,1016.850
2017-03-28T14:29:12.611Z,1016.837
2017-03-28T14:32:18.809Z,1016.842
2017-03-28T14:35:25.033Z,1016.826
2017-03-28T14:38:31.312Z,1016.828
2017-03-28T14:41:37.620Z,1016.819
2017-03-28T14:44:43.883Z,1016.789
2017-03-28T14:47:50.136Z,1016.775
2017-03-28T14:50:56.334Z,1016.757
2017-03-28T14:54:02.291Z,1016.720
2017-03-28T14:57:08.394Z,1016.722
2017-03-28T15:00:14.575Z,1016.708
2017-03-28T15:03:20.873Z,1016.647
2017-03-28T15:06:27.139Z,1016.617
2017-03-28T15:09:33.358Z,1016.648
2017-03-28T15:12:39.564Z,1016.650
2017-03-28T15:15:45.716Z,1016.667
2017-03-28T15:18:51.635Z,1016.615
2017-03-28T15:21:57.721Z,1016.614
2017-03-28T15:25:03.578Z,1016.611
2017-03-28T15:28:09.647Z,1016.670
2017-03-28T15:31:15.435Z,1016.638
2017-03-28T15:34:21.728Z,1016.649
2017-03-28T15:37:27.992Z,1016.662
2017-03-28T15:40:34.074Z,1016.660
2017-03-28T15:43:40.333Z,1016.686
2017-03-28T15:46:47.379Z,1016.716
2017-03-28T15:49:53.583Z,1016.714
2017-03-28T15:52:59.787Z,1016.728
2017-03-28T15:56:05.970Z,1016.756
2017-03-28T15:59:12.195Z,1016.809
2017-03-28T16:02:18.346Z,1016.831
2017-03-28T16:05:24.078Z,1016.868
2017-03-28T16:08:30.369Z,1016.842
2017-03-28T16:11:36.538Z,1016.855
2017-03-28T16:14:42.777Z,1016.846
2017-03-28T16:17:48.814Z,1016.828
2017-03-28T16:20:49.948Z,1016.838
2017-03-28T16:24:01.332Z,1016.830
2017-03-28T16:27:07.530Z,1016.849
2017-03-28T16:30:13.659Z,1016.841
2017-03-28T16:33:19.793Z,1016.849
2017-03-28T16:36:25.733Z,1016.822
2017-03-28T16:39:31.923Z,1016.796
2017-03-28T16:42:38.055Z,1016.767
2017-03-28T16:45:44.093Z,1016.794
2017-03-28T16:48:50.185Z,1016.760
2017-03-28T16:55:02.751Z,1016.794
2017-03-28T16:58:08.868Z,1016.809
2017-03-28T17:01:15.026Z,1016.796
2017-03-28T17:04:21.252Z,1016.808
2017-03-28T17:07:27.233Z,1016.840
2017-03-28T17:10:34.466Z,1016.833
2017-03-28T17:13:38.448Z,1016.835
2017-03-28T17:16:44.605Z,1016.866
2017-03-28T17:19:50.644Z,1016.895
2017-03-28T17:22:56.697Z,1016.908
2017-03-28T17:26:02.617Z,1016.929
2017-03-28T17:29:08.628Z,1016.937
2017-03-28T17:32:20.701Z,1016.961
2017-03-28T17:35:19.773Z,1016.985
2017-03-28T17:38:25.817Z,1016.971
2017-03-28T17:41:31.848Z,1016.957
2017-03-28T17:44:37.851Z,1016.961
2017-03-28T17:47:43.650Z,1016.990
2017-03-28T17:50:49.727Z,1017.002
2017-03-28T17:53:55.683Z,1017.061
2017-03-28T17:57:01.577Z,1017.078
2017-03-28T18:00:07.246Z,1017.078
2017-03-28T18:03:13.168Z,1017.088
2017-03-28T18:06:18.680Z,1017.091
2017-03-28T18:09:24.707Z,1017.095
2017-03-28T18:12:30.362Z,1017.099
2017-03-28T18:15:36.361Z,1017.133
2017-03-28T18:18:48.267Z,1017.098
2017-03-28T18:21:47.356Z,1017.111
2017-03-28T18:24:53.082Z,1017.210
2017-03-28T18:27:59.033Z,1017.266
2017-03-28T18:31:05.028Z,1017.304
2017-03-28T18:34:10.894Z,1017.316
2017-03-28T18:37:16.755Z,1017.359
2017-03-28T18:40:23.097Z,1017.350
2017-03-28T18:43:29.026Z,1017.322
2017-03-28T18:49:40.643Z,1017.387
2017-03-28T18:52:46.402Z,1017.345
2017-03-28T18:55:52.229Z,1017.362
2017-03-28T18:58:58.151Z,1017.354
2017-03-28T19:02:03.944Z,1017.340
2017-03-28T19:05:09.745Z,1017.371
2017-03-28T19:08:15.701Z,1017.419
2017-03-28T19:11:21.378Z,1017.409
2017-03-28T19:14:27.317Z,1017.390
2017-03-28T19:17:33.331Z,1017.370
2017-03-28T19:20:38.847Z,1017.407
2017-03-28T19:23:44.645Z,1017.394
2017-03-28T19:26:50.351Z,1017.397
2017-03-28T19:29:56.231Z,1017.445
2017-03-28T19:33:01.941Z,1017.482
2017-03-28T19:36:07.706Z,1017.495
2017-03-28T19:39:13.599Z,1017.574
2017-03-28T19:42:19.471Z,1017.669
2017-03-28T19:48:31.469Z,1017.681
2017-03-28T19:51:37.280Z,1017.689
2017-03-28T19:54:43.045Z,1017.667
2017-03-28T19:57:48.884Z,1017.681
2017-03-28T20:00:54.707Z,1017.720
2017-03-28T20:03:59.922Z,1017.749
2017-03-28T20:07:05.689Z,1017.795
2017-03-28T20:10:11.623Z,1017.787
2017-03-28T20:13:17.315Z,1017.783
2017-03-28T20:16:23.082Z,1017.816
2017-03-28T20:19:28.669Z,1017.809
2017-03-28T20:22:34.423Z,1017.940
2017-03-28T20:25:40.224Z,1017.838
2017-03-28T20:28:46.013Z,1017.954
2017-03-28T20:31:51.742Z,1017.850
2017-03-28T20:34:57.363Z,1017.869
2017-03-28T20:38:03.104Z,1017.880
2017-03-28T20:41:08.733Z,1017.873
2017-03-28T20:44:14.525Z,1017.916
2017-03-28T20:47:20.036Z,1017.894
2017-03-28T20:50:25.747Z,1017.931
2017-03-28T20:53:31.054Z,1017.947
2017-03-28T20:56:36.772Z,1018.041
2017-03-28T20:59:42.342Z,1018.087
2017-03-28T21:02:47.980Z,1018.087
2017-03-28T21:05:53.562Z,1018.088
2017-03-28T21:08:59.176Z,1018.102
2017-03-28T21:12:04.954Z,1018.132
2017-03-28T21:15:10.582Z,1018.174
2017-03-28T21:18:16.137Z,1018.142
2017-03-28T21:21:21.854Z,1018.154
2017-03-28T21:27:33.591Z,1018.232
2017-03-28T21:30:39.294Z,1018.252
2017-03-28T21:33:45.037Z,1018.270
2017-03-28T21:36:50.453Z,1018.286
2017-03-28T21:39:55.860Z,1018.277
2017-03-28T21:43:01.485Z,1018.245
2017-03-28T21:46:07.104Z,1018.301
2017-03-28T21:52:24.242Z,1018.274
2017-03-28T21:55:24.258Z,1018.288
2017-03-28T21:58:29.871Z,1018.305
2017-03-28T22:01:35.418Z,1018.313
2017-03-28T22:04:40.968Z,1018.310
2017-03-28T22:07:46.249Z,1018.360
2017-03-28T22:10:57.937Z,1018.342
2017-03-28T22:13:56.541Z,1018.338
2017-03-28T22:17:02.157Z,1018.303
2017-03-28T22:20:07.289Z,1018.225
2017-03-28T22:23:12.845Z,1018.232
2017-03-28T22:26:18.302Z,1018.250
2017-03-28T22:29:23.940Z,1018.269
2017-03-28T22:32:29.408Z,1018.287
2017-03-28T22:38:40.842Z,1018.262
2017-03-28T22:41:46.487Z,1018.295
2017-03-28T22:44:52.013Z,1018.315
2017-03-28T22:47:57.593Z,1018.328
2017-03-28T22:51:03.141Z,1018.337
2017-03-28T22:54:08.750Z,1018.319
2017-03-28T22:57:14.263Z,1018.310
2017-03-28T23:00:19.866Z,1018.316
2017-03-28T23:03:25.458Z,1018.325
2017-03-28T23:06:30.942Z,1018.320
2017-03-28T23:09:36.616Z,1018.283
2017-03-28T23:12:42.095Z,1018.287
2017-03-28T23:15:47.634Z,1018.276
2017-03-28T23:18:53.083Z,1018.292
2017-03-28T23:21:58.710Z,1018.306
2017-03-28T23:25:04.254Z,1018.298
2017-03-28T23:28:09.815Z,1018.305
2017-03-28T23:31:15.366Z,1018.310
2017-03-28T23:34:20.770Z,1018.293
2017-03-28T23:37:26.345Z,1018.290
2017-03-28T23:40:32.383Z,1018.258
2017-03-28T23:43:37.752Z,1018.224
2017-03-28T23:52:53.714Z,1018.141
2017-03-28T23:55:59.181Z,1018.106
2017-03-28T23:58:59.542Z,1018.081
